Terminal Aerodrome Forecast
Issued by NWS Twin Cities, MN

Home | Current Version | Previous Version | Text Only | Print | Product List | Glossary On
Versions: 1 2 3 4 5 6 7 8 9 10 11 12 13 14 15 16 17 18 19 20 21 22 23 24 25 26 27 28 29 30
686
FTUS43 KMPX 160537
TAFSTC
TAF
KSTC 160537Z 1606/1706 20005KT P6SM OVC012
     FM161500 29005KT P6SM SCT015 BKN050
     FM162100 26006KT P6SM BKN100
     FM170100 23008KT P6SM OVC050=

USA.gov is the U.S. government's official web portal to all federal, state and local government web resources and services.